CYAM

Sault Ste Marie Airport

Sault Ste Marie, , Canada
METAR CYAM 171800Z 29018G24KT 15SM -SHSN FEW010 SCT028 SCT058 03/M01 A3007 RMK CF1CU3SC1 CF TR SC TR SLP191
Observed Flight Rules
Oct-17 @ 18:00 UTC (33 minutes ago) Visual Flight Rules
Wind Visibility Clouds Conditions
290° at 18 knots
 Gusting to 24 knots
15 miles
  • Few at 1,000' AGL
  • Scattered at 2,800' AGL
  • Scattered at 5,800' AGL
  • Light Snow
Temperatures Readings
Current 3°C / 37°F
Dewpoint -1°C / 30°F
Humidity 75%
Altimeter 30.07" Hg
Pressure 1019.1 hPa
Elevation 192
METAR CYAM 171800Z 29018G24KT 15SM -SHSN FEW010 SCT028 SCT058 03/M01 A3007 RMK CF1CU3SC1 CF TR SC TR SLP191
Observed Flight Rules
Oct-17 @ 18:00 UTC
(33 minutes ago)
VFR
Wind Visibility
290° at 18 knots
 Gusting to 24 knots
15 miles
Clouds
  • Few at 1,000' AGL
  • Scattered at 2,800' AGL
  • Scattered at 5,800' AGL
Conditions
  • Light Snow
Temperature Dewpoint
3°C / 37°F -1°C / 30°F
Humidity Altimeter Pressure
75% 30.07" Hg 1019.1 hPa